Time;durP1;ratioP1;P1;durP2;ratioP2;P2;SDS_P1;SDS_P2;PMS_P1;PMS_P2;Temp;Humidity;BMP_temperature;BMP_pressure;BME280_temperature;BME280_humidity;BME280_pressure;Samples;Min_cycle;Max_cycle;Signal;HPM_P1;HPM_P2
2023/10/15 00:00:55;;;;;;;4.43;2.60;;;;;;;11.91;64.01;96868.91;6215984;23;20067;-77
2023/10/15 00:03:23;;;;;;;5.57;2.28;;;;;;;11.93;67.66;96866.91;6214495;23;20020;-75
2023/10/15 00:05:50;;;;;;;5.47;2.38;;;;;;;11.98;68.55;96874.22;6215651;23;20027;-75
2023/10/15 00:08:18;;;;;;;4.63;2.10;;;;;;;11.99;66.60;96869.81;6215673;23;20144;-75
2023/10/15 00:10:46;;;;;;;4.75;2.13;;;;;;;12.00;69.20;96869.59;6215317;23;20103;-75
2023/10/15 00:13:13;;;;;;;5.40;2.03;;;;;;;12.00;67.81;96871.41;6215888;23;20362;-75
2023/10/15 00:15:43;;;;;;;5.85;1.88;;;;;;;11.98;66.30;96871.59;6215375;23;20048;-75
2023/10/15 00:18:13;;;;;;;6.57;1.90;;;;;;;11.95;67.25;96872.78;6215210;23;20024;-75
2023/10/15 00:20:41;;;;;;;2.80;1.48;;;;;;;11.98;67.40;96873.41;6214332;23;20020;-75
2023/10/15 00:23:09;;;;;;;5.63;2.10;;;;;;;11.97;66.11;96864.75;6214486;23;20103;-75
2023/10/15 00:25:47;;;;;;;5.50;2.55;;;;;;;11.93;66.03;96881.81;6214247;23;20029;-75
2023/10/15 00:28:15;;;;;;;5.03;2.42;;;;;;;11.94;67.89;96873.78;6214748;23;20025;-75
2023/10/15 00:30:44;;;;;;;4.70;2.10;;;;;;;11.97;67.71;96877.03;6215891;23;20022;-75
2023/10/15 00:33:13;;;;;;;4.80;2.17;;;;;;;11.99;68.56;96875.84;6215538;23;20063;-75
2023/10/15 00:35:44;;;;;;;4.78;2.30;;;;;;;11.99;66.54;96872.44;6215017;23;20055;-75
2023/10/15 00:38:16;;;;;;;6.30;2.50;;;;;;;11.97;67.93;96871.81;6215501;23;20025;-75
2023/10/15 00:40:45;;;;;;;4.60;1.85;;;;;;;11.94;68.88;96873.78;6215030;23;20020;-75
2023/10/15 00:43:17;;;;;;;5.90;2.17;;;;;;;11.91;67.45;96874.13;6215666;23;20020;-75
2023/10/15 00:45:46;;;;;;;5.55;2.00;;;;;;;11.85;68.87;96869.63;6215007;23;20031;-75
2023/10/15 00:48:24;;;;;;;5.90;2.22;;;;;;;11.91;71.37;96866.28;6215947;23;20099;-75
2023/10/15 00:50:53;;;;;;;4.90;2.10;;;;;;;11.92;70.08;96870.53;6215393;23;20471;-75
2023/10/15 00:53:23;;;;;;;9.90;2.35;;;;;;;11.89;68.22;96870.88;6215267;23;20044;-75
2023/10/15 00:55:52;;;;;;;5.18;2.00;;;;;;;11.88;67.86;96869.28;6215164;23;20021;-76
2023/10/15 00:58:31;;;;;;;4.88;1.92;;;;;;;11.89;69.34;96862.25;6215277;23;20028;-75
2023/10/15 01:01:13;;;;;;;4.90;2.00;;;;;;;11.89;67.52;96868.28;6215451;23;20397;-75
2023/10/15 01:03:48;;;;;;;4.43;1.60;;;;;;;11.92;69.01;96859.28;6217912;23;20480;-75
2023/10/15 01:06:18;;;;;;;6.60;1.60;;;;;;;11.94;67.98;96852.88;6215025;23;20028;-75
2023/10/15 01:08:47;;;;;;;4.03;1.75;;;;;;;11.97;69.10;96853.50;6214664;23;20056;-75
2023/10/15 01:11:18;;;;;;;4.68;1.88;;;;;;;11.93;66.76;96851.22;6214751;23;20048;-75
2023/10/15 01:13:46;;;;;;;4.03;1.80;;;;;;;11.90;68.35;96854.22;6231654;23;20045;-75
2023/10/15 01:16:18;;;;;;;3.42;2.08;;;;;;;11.91;68.70;96847.19;6212391;23;20516;-75
2023/10/15 01:18:55;;;;;;;5.93;1.75;;;;;;;11.84;65.96;96846.28;6221391;23;20052;-74
2023/10/15 01:21:29;;;;;;;3.28;1.50;;;;;;;11.79;69.24;96846.84;6238698;23;20021;-76
2023/10/15 01:24:04;;;;;;;4.43;1.77;;;;;;;11.77;68.75;96846.22;6231515;23;20035;-75
2023/10/15 01:26:38;;;;;;;3.72;1.67;;;;;;;11.73;69.09;96837.91;6215874;23;20031;-75
2023/10/15 01:29:07;;;;;;;2.95;1.63;;;;;;;11.72;68.05;96840.72;6215503;23;20028;-75
2023/10/15 01:31:49;;;;;;;5.35;1.88;;;;;;;11.74;67.60;96838.72;6215168;23;20048;-75
2023/10/15 01:34:21;;;;;;;4.05;2.22;;;;;;;11.71;64.69;96833.88;6214511;23;20047;-75
2023/10/15 01:36:49;;;;;;;6.43;2.47;;;;;;;11.55;63.43;96833.06;6211832;23;20486;-75
2023/10/15 01:39:22;;;;;;;4.68;1.80;;;;;;;11.38;63.11;96836.06;6212555;23;20064;-75
2023/10/15 01:41:51;;;;;;;2.97;1.98;;;;;;;11.14;62.87;96830.91;6212095;23;20017;-75
2023/10/15 01:44:19;;;;;;;7.25;2.17;;;;;;;10.96;63.18;96829.66;6212464;23;20450;-75
2023/10/15 01:46:48;;;;;;;4.72;1.90;;;;;;;10.84;64.18;96831.88;6212996;23;20099;-75
2023/10/15 01:49:31;;;;;;;8.15;1.92;;;;;;;10.77;63.89;96834.38;6212688;23;20028;-75
2023/10/15 01:52:05;;;;;;;3.25;1.70;;;;;;;10.68;63.89;96831.03;6215215;23;20025;-75
2023/10/15 01:54:34;;;;;;;5.97;1.95;;;;;;;10.60;63.50;96833.69;6214228;23;20119;-75
2023/10/15 01:57:06;;;;;;;4.93;1.58;;;;;;;10.50;63.40;96828.75;6215165;23;20025;-75
2023/10/15 01:59:45;;;;;;;5.40;2.00;;;;;;;10.38;63.71;96832.75;6215204;23;20063;-75
2023/10/15 02:02:14;;;;;;;4.05;1.80;;;;;;;10.28;64.10;96835.56;6214476;23;20020;-75
2023/10/15 02:04:44;;;;;;;6.65;2.15;;;;;;;10.23;64.26;96837.06;6214108;23;20028;-75
2023/10/15 02:07:16;;;;;;;4.18;1.95;;;;;;;10.17;64.35;96843.00;6214717;23;20026;-74
2023/10/15 02:09:44;;;;;;;3.72;1.80;;;;;;;10.10;64.28;96848.03;6214468;23;20025;-75
2023/10/15 02:12:14;;;;;;;5.85;1.80;;;;;;;10.03;64.69;96839.31;6214994;23;20180;-74
2023/10/15 02:14:44;;;;;;;4.32;1.70;;;;;;;10.00;64.73;96839.66;6214698;23;20024;-75
2023/10/15 02:17:14;;;;;;;4.28;1.65;;;;;;;9.98;64.62;96839.03;6213609;23;20092;-75
2023/10/15 02:19:42;;;;;;;4.45;1.90;;;;;;;9.96;64.40;96838.38;6213020;23;20020;-76
2023/10/15 02:22:12;;;;;;;2.80;1.67;;;;;;;9.89;64.49;96841.66;6213448;23;20023;-75
2023/10/15 02:24:46;;;;;;;5.15;1.80;;;;;;;9.84;64.64;96843.97;6213447;23;20357;-75
2023/10/15 02:27:17;;;;;;;4.97;1.65;;;;;;;9.80;64.94;96844.50;6213692;23;20016;-75
2023/10/15 02:29:49;;;;;;;3.22;1.55;;;;;;;9.73;65.11;96840.94;6214243;23;20108;-75
2023/10/15 02:32:28;;;;;;;5.47;1.40;;;;;;;9.69;65.36;96845.69;6214971;23;20048;-75
2023/10/15 02:34:57;;;;;;;5.95;1.88;;;;;;;9.65;65.49;96854.81;6213029;23;20024;-76
2023/10/15 02:37:27;;;;;;;3.72;1.70;;;;;;;9.62;65.37;96855.13;6214394;23;20497;-76
2023/10/15 02:39:56;;;;;;;5.05;1.50;;;;;;;9.61;65.64;96854.31;6214516;23;20466;-78
2023/10/15 02:42:31;;;;;;;4.30;1.63;;;;;;;9.59;66.11;96858.91;6214726;23;20017;-76
2023/10/15 02:45:00;;;;;;;5.53;1.85;;;;;;;9.60;66.07;96846.69;6214559;23;20052;-75
2023/10/15 02:47:40;;;;;;;6.10;2.55;;;;;;;9.60;66.19;96842.31;6216477;23;20103;-76
2023/10/15 02:50:15;;;;;;;5.20;1.85;;;;;;;9.62;66.09;96849.94;6216411;23;20025;-75
2023/10/15 02:52:43;;;;;;;6.60;1.88;;;;;;;9.62;66.18;96845.56;6216587;23;20090;-75
2023/10/15 02:55:26;;;;;;;3.80;1.40;;;;;;;9.63;66.35;96844.56;6216367;23;20032;-75
2023/10/15 02:58:00;;;;;;;7.57;1.67;;;;;;;9.65;66.18;96841.78;6215778;23;20032;-76
2023/10/15 03:00:29;;;;;;;3.50;1.10;;;;;;;9.68;66.12;96838.84;6213951;23;20421;-76
2023/10/15 03:02:56;;;;;;;3.28;1.33;;;;;;;9.68;66.53;96841.44;6214135;23;20211;-76
2023/10/15 03:05:30;;;;;;;6.18;1.70;;;;;;;9.67;66.37;96843.25;6213736;23;20043;-75
2023/10/15 03:07:59;;;;;;;3.03;1.58;;;;;;;9.67;66.40;96842.44;6214393;23;20035;-75
2023/10/15 03:10:30;;;;;;;3.17;1.52;;;;;;;9.65;66.29;96847.81;6213544;23;20071;-75
2023/10/15 03:13:01;;;;;;;3.13;1.20;;;;;;;9.64;66.59;96841.00;6214150;23;20094;-76
2023/10/15 03:15:29;;;;;;;3.90;1.40;;;;;;;9.68;66.54;96841.44;6215106;23;20108;-75
2023/10/15 03:17:56;;;;;;;3.80;1.30;;;;;;;9.68;66.53;96842.25;6216356;23;20071;-76
2023/10/15 03:20:27;;;;;;;3.13;1.30;;;;;;;9.70;66.44;96842.09;6216320;23;20025;-75
2023/10/15 03:22:59;;;;;;;1.40;1.30;;;;;;;9.71;66.50;96835.91;6221291;23;20446;-76
2023/10/15 03:25:33;;;;;;;1.80;1.30;;;;;;;9.73;66.20;96841.75;6222742;23;20056;-75
2023/10/15 03:28:06;;;;;;;4.47;1.48;;;;;;;9.74;66.37;96832.94;6216094;23;20021;-75
2023/10/15 03:30:34;;;;;;;4.07;2.55;;;;;;;9.76;66.42;96838.00;6216400;23;20448;-75
2023/10/15 03:33:02;;;;;;;5.93;1.50;;;;;;;9.76;66.47;96835.41;6216101;23;20087;-75
2023/10/15 03:35:37;;;;;;;4.57;1.92;;;;;;;9.77;66.80;96826.59;6215774;23;20024;-75
2023/10/15 03:38:09;;;;;;;4.68;1.35;;;;;;;9.76;66.70;96825.78;6216330;23;20032;-76
2023/10/15 03:40:44;;;;;;;3.95;1.40;;;;;;;9.76;66.81;96824.97;6215762;23;20521;-76
2023/10/15 03:43:16;;;;;;;8.02;1.83;;;;;;;9.76;66.59;96825.78;6216059;23;20039;-76
2023/10/15 03:45:51;;;;;;;1.95;1.25;;;;;;;9.76;66.71;96820.56;6215928;23;20096;-75
2023/10/15 03:48:21;;;;;;;3.10;1.30;;;;;;;9.79;66.77;96825.41;6216876;23;20027;-76
2023/10/15 03:50:55;;;;;;;5.43;1.80;;;;;;;9.79;66.76;96817.59;6215681;23;20017;-75
2023/10/15 03:53:27;;;;;;;3.53;1.45;;;;;;;9.78;66.83;96828.22;6216099;23;20052;-76
2023/10/15 03:56:01;;;;;;;4.35;1.65;;;;;;;9.77;67.28;96835.19;6215817;23;20021;-75
2023/10/15 03:58:31;;;;;;;4.47;1.80;;;;;;;9.78;67.23;96836.03;6215538;23;20025;-76
2023/10/15 04:01:11;;;;;;;4.95;2.08;;;;;;;9.78;66.92;96826.41;6216231;23;20024;-75
2023/10/15 04:03:42;;;;;;;2.33;1.38;;;;;;;9.80;66.85;96826.25;6215616;23;20462;-75
2023/10/15 04:06:13;;;;;;;6.07;2.05;;;;;;;9.79;67.04;96828.03;6215790;23;20060;-75
2023/10/15 04:08:59;;;;;;;5.50;1.70;;;;;;;9.78;67.04;96829.03;6215752;23;20099;-75
2023/10/15 04:11:31;;;;;;;3.17;1.58;;;;;;;9.81;67.19;96823.47;6215865;23;20021;-76
2023/10/15 04:14:13;;;;;;;3.10;1.52;;;;;;;9.85;67.11;96816.94;6215245;23;20024;-75
2023/10/15 04:16:42;;;;;;;5.22;1.42;;;;;;;9.89;67.07;96809.59;6215443;23;20099;-75
2023/10/15 04:19:09;;;;;;;3.75;1.35;;;;;;;9.91;67.06;96815.44;6215356;23;20025;-75
2023/10/15 04:21:39;;;;;;;6.60;1.75;;;;;;;9.93;66.95;96815.25;6215780;23;20074;-75
2023/10/15 04:24:07;;;;;;;3.22;1.77;;;;;;;10.00;68.16;96819.63;6216064;23;20026;-76
2023/10/15 04:26:40;;;;;;;2.70;2.10;;;;;;;10.16;70.69;96820.50;6215504;23;20025;-76
2023/10/15 04:29:17;;;;;;;;;;;;;;;10.33;71.62;96823.84;6218823;23;20398;-75
2023/10/15 04:31:56;;;;;;;8.23;2.88;;;;;;;10.47;70.80;96820.44;6241810;23;19915;-75
2023/10/15 04:34:25;;;;;;;4.30;1.60;;;;;;;10.61;70.55;96829.31;6236605;23;20052;-75
2023/10/15 04:36:54;;;;;;;3.80;2.08;;;;;;;10.68;70.68;96825.00;6217114;23;20036;-76
2023/10/15 04:39:24;;;;;;;2.97;1.73;;;;;;;10.75;72.47;96820.69;6216331;23;20024;-75
2023/10/15 04:42:20;;;;;;;3.90;1.77;;;;;;;10.84;72.92;96824.03;6214988;23;20470;-75
2023/10/15 04:44:50;;;;;;;6.68;2.00;;;;;;;10.89;70.98;96821.72;6215712;23;20200;-75
2023/10/15 04:47:26;;;;;;;6.28;1.40;;;;;;;10.91;70.91;96812.72;6216714;23;20067;-75
2023/10/15 04:49:57;;;;;;;6.68;2.60;;;;;;;10.93;68.47;96822.97;6215842;23;20028;-75
2023/10/15 04:52:25;;;;;;;5.63;1.50;;;;;;;10.87;67.48;96810.66;6215656;23;20017;-75
2023/10/15 04:54:55;;;;;;;4.85;1.52;;;;;;;10.84;66.92;96811.00;6215279;23;20024;-75
2023/10/15 04:57:24;;;;;;;1.58;1.30;;;;;;;10.91;69.84;96817.94;6215324;23;20493;-75
2023/10/15 04:59:53;;;;;;;4.53;2.28;;;;;;;10.96;68.37;96814.81;6215343;23;20361;-76
2023/10/15 05:02:21;;;;;;;3.83;1.60;;;;;;;11.02;70.96;96811.47;6215021;23;20029;-75
2023/10/15 05:04:49;;;;;;;1.27;1.15;;;;;;;11.08;71.09;96810.75;6214990;23;20075;-75
2023/10/15 05:07:17;;;;;;;4.72;1.95;;;;;;;11.12;71.38;96811.19;6215339;23;20025;-75
2023/10/15 05:09:44;;;;;;;3.35;1.45;;;;;;;11.12;70.35;96806.78;6214890;23;20422;-76
2023/10/15 05:12:13;;;;;;;3.10;1.70;;;;;;;11.19;70.76;96817.31;6215244;23;20048;-76
2023/10/15 05:14:41;;;;;;;3.85;1.55;;;;;;;11.24;70.33;96811.56;6215017;23;20099;-75
2023/10/15 05:17:10;;;;;;;3.78;1.40;;;;;;;11.33;71.88;96813.91;6215564;23;20024;-75
2023/10/15 05:19:37;;;;;;;4.93;1.67;;;;;;;11.39;70.90;96815.00;6214776;23;20462;-76
2023/10/15 05:22:05;;;;;;;6.88;1.70;;;;;;;11.39;68.81;96817.59;6215488;23;20017;-75
2023/10/15 05:24:33;;;;;;;6.05;2.10;;;;;;;11.44;68.86;96823.09;6214512;23;20060;-77
2023/10/15 05:27:00;;;;;;;3.78;1.90;;;;;;;11.46;70.06;96815.88;6215105;23;20052;-75
2023/10/15 05:29:28;;;;;;;4.63;2.15;;;;;;;11.42;67.00;96825.06;6215262;23;20104;-75
2023/10/15 05:31:57;;;;;;;5.95;2.00;;;;;;;11.30;67.34;96818.66;6214778;23;20522;-75
2023/10/15 05:34:26;;;;;;;6.32;2.35;;;;;;;11.26;67.57;96827.84;6227930;23;20024;-75
2023/10/15 05:36:54;;;;;;;5.57;1.50;;;;;;;11.20;66.96;96828.59;6215033;23;20025;-76
2023/10/15 05:39:24;;;;;;;4.63;2.10;;;;;;;11.19;68.42;96837.41;6215017;23;20439;-76
2023/10/15 05:41:52;;;;;;;5.55;1.88;;;;;;;11.20;68.01;96836.44;6214780;23;20056;-75
2023/10/15 05:44:20;;;;;;;4.43;1.95;;;;;;;11.19;70.06;96847.84;6214744;23;20095;-75
2023/10/15 05:46:47;;;;;;;15.90;2.20;;;;;;;11.21;68.77;96845.88;6215566;23;20103;-76
2023/10/15 05:49:15;;;;;;;2.85;1.50;;;;;;;11.19;68.84;96843.44;6215087;23;20020;-75
2023/10/15 05:51:44;;;;;;;4.35;1.98;;;;;;;11.18;69.32;96841.03;6215354;23;20417;-75
2023/10/15 05:54:12;;;;;;;11.93;2.13;;;;;;;11.22;70.70;96842.28;6215199;23;20071;-75
2023/10/15 05:56:40;;;;;;;4.60;2.38;;;;;;;11.24;70.00;96846.34;6214689;23;20024;-76
2023/10/15 05:59:07;;;;;;;7.57;2.10;;;;;;;11.26;71.80;96839.13;6214762;23;20100;-75
2023/10/15 06:01:35;;;;;;;2.78;1.70;;;;;;;11.34;72.87;96848.66;6221252;23;20024;-75
2023/10/15 06:04:03;;;;;;;4.75;2.13;;;;;;;11.40;73.81;96844.53;6231950;23;20038;-75
2023/10/15 06:06:32;;;;;;;4.50;1.67;;;;;;;11.44;72.77;96846.59;6232059;23;20035;-76
2023/10/15 06:09:01;;;;;;;4.15;1.70;;;;;;;11.48;72.47;96849.66;6232615;23;20016;-75
2023/10/15 06:11:31;;;;;;;4.65;2.15;;;;;;;11.49;71.62;96848.66;6228538;23;20072;-76
2023/10/15 06:13:58;;;;;;;3.10;1.55;;;;;;;11.50;70.94;96853.72;6217865;23;20413;-76
2023/10/15 06:16:26;;;;;;;5.75;1.65;;;;;;;11.48;70.03;96853.09;6215768;23;20021;-75
2023/10/15 06:18:54;;;;;;;5.38;1.83;;;;;;;11.47;70.21;96854.06;6215192;23;20052;-76
2023/10/15 06:21:21;;;;;;;5.20;2.45;;;;;;;11.48;71.93;96870.56;6215270;23;20104;-75
2023/10/15 06:23:49;;;;;;;4.72;1.75;;;;;;;11.52;72.39;96866.56;6217386;23;20099;-76
2023/10/15 06:26:18;;;;;;;5.05;2.00;;;;;;;11.55;71.59;96885.31;6217725;23;20052;-75
2023/10/15 06:28:45;;;;;;;2.45;1.70;;;;;;;11.58;71.19;96893.78;6217508;23;20038;-76
2023/10/15 06:31:13;;;;;;;6.55;3.10;;;;;;;11.60;70.98;96882.16;6217530;23;20123;-75
2023/10/15 06:33:41;;;;;;;5.53;2.38;;;;;;;11.61;71.08;96888.19;6217184;23;20044;-76
2023/10/15 06:36:08;;;;;;;4.10;1.92;;;;;;;11.54;69.33;96888.94;6217010;23;20032;-75
2023/10/15 06:38:36;;;;;;;5.97;2.28;;;;;;;11.47;68.88;96888.03;6216353;23;20095;-75
2023/10/15 06:41:04;;;;;;;3.15;2.05;;;;;;;11.44;68.68;96896.22;6217336;23;20063;-75
2023/10/15 06:43:33;;;;;;;3.72;2.03;;;;;;;11.39;70.40;96901.19;6217073;23;20044;-76
2023/10/15 06:46:05;;;;;;;3.35;1.70;;;;;;;11.36;69.89;96909.38;6216618;23;20024;-76
2023/10/15 06:48:33;;;;;;;5.10;2.05;;;;;;;11.32;68.63;96919.34;6217994;23;20032;-75
2023/10/15 06:51:02;;;;;;;4.20;2.15;;;;;;;11.25;69.63;96920.25;6216430;23;20485;-75
2023/10/15 06:53:30;;;;;;;4.00;1.98;;;;;;;11.22;69.13;96918.81;6217049;23;20059;-75
2023/10/15 06:55:58;;;;;;;4.85;2.00;;;;;;;11.17;68.79;96926.34;6216547;23;20415;-75
2023/10/15 06:58:28;;;;;;;3.65;1.65;;;;;;;11.03;67.81;96930.56;6216669;23;20401;-75
2023/10/15 07:00:57;;;;;;;3.67;1.55;;;;;;;10.95;69.04;96937.66;6216805;23;20025;-76
2023/10/15 07:03:25;;;;;;;3.38;1.92;;;;;;;10.97;70.10;96923.44;6216279;23;20020;-75
2023/10/15 07:05:53;;;;;;;2.15;1.30;;;;;;;10.96;68.45;96906.16;6216813;23;20024;-76
2023/10/15 07:08:21;;;;;;;2.30;1.67;;;;;;;10.88;67.49;96924.50;6216607;23;20056;-75
2023/10/15 07:10:49;;;;;;;4.78;1.90;;;;;;;10.80;68.92;96924.53;6217062;23;20416;-75
2023/10/15 07:13:18;;;;;;;4.57;2.58;;;;;;;10.81;68.73;96929.59;6216732;23;20021;-75
2023/10/15 07:15:46;;;;;;;7.22;2.60;;;;;;;10.83;69.41;96926.81;6216430;23;20451;-75
2023/10/15 07:18:15;;;;;;;4.15;2.25;;;;;;;10.88;71.26;96932.31;6216609;23;20407;-75
2023/10/15 07:20:43;;;;;;;3.20;1.30;;;;;;;10.92;69.57;96930.97;6216738;23;20027;-75
2023/10/15 07:23:11;;;;;;;2.63;1.30;;;;;;;10.91;68.69;96924.97;6215986;23;20040;-75
2023/10/15 07:25:38;;;;;;;3.55;1.27;;;;;;;10.96;69.65;96934.06;6215625;23;20021;-76
2023/10/15 07:28:06;;;;;;;1.30;0.90;;;;;;;10.97;67.93;96933.88;6217014;23;20099;-75
2023/10/15 07:30:34;;;;;;;1.23;0.82;;;;;;;10.94;66.74;96936.84;6216655;23;20107;-76
2023/10/15 07:33:01;;;;;;;3.60;1.33;;;;;;;10.92;68.05;96936.19;6216695;23;20024;-76
2023/10/15 07:35:31;;;;;;;2.58;1.05;;;;;;;10.93;67.67;96938.66;6216216;23;20028;-75
2023/10/15 07:38:02;;;;;;;2.22;1.30;;;;;;;11.02;69.04;96934.16;6216200;23;20111;-75
2023/10/15 07:40:32;;;;;;;3.17;1.33;;;;;;;11.13;67.80;96928.53;6222663;23;20012;-75
2023/10/15 07:43:02;;;;;;;1.50;1.05;;;;;;;11.21;66.77;96932.03;6243370;23;20009;-75
2023/10/15 07:45:32;;;;;;;3.35;1.23;;;;;;;11.43;66.83;96936.38;6242748;23;20071;-75
2023/10/15 07:48:02;;;;;;;3.45;1.38;;;;;;;11.68;66.45;96933.53;6231720;23;20029;-75
2023/10/15 07:50:34;;;;;;;25.80;14.65;;;;;;;11.91;67.82;96930.84;6216873;23;20355;-75
2023/10/15 07:53:02;;;;;;;9.60;3.78;;;;;;;12.06;66.52;96923.78;6216412;23;20075;-74
2023/10/15 07:55:31;;;;;;;4.82;1.77;;;;;;;12.22;65.82;96925.38;6215933;23;20017;-76
2023/10/15 07:57:58;;;;;;;3.83;1.90;;;;;;;12.43;66.88;96915.97;6213767;23;20996;-77
2023/10/15 08:00:29;;;;;;;3.83;1.70;;;;;;;12.68;65.25;96914.59;6215478;23;20052;-76
2023/10/15 08:03:00;;;;;;;5.15;2.00;;;;;;;12.99;66.64;96923.94;6215743;23;20458;-77
2023/10/15 08:05:31;;;;;;;;;;;;;;;13.84;65.36;96916.88;6216617;23;20370;-77
2023/10/15 08:08:02;;;;;;;6.22;1.75;;;;;;;14.52;60.30;96921.31;6216808;23;19990;-77
2023/10/15 08:10:33;;;;;;;9.68;4.68;;;;;;;14.79;59.50;96912.53;6218063;23;20095;-77
2023/10/15 08:13:02;;;;;;;7.20;3.22;;;;;;;14.79;58.89;96925.66;6216833;23;20024;-78
2023/10/15 08:15:33;;;;;;;4.35;2.28;;;;;;;14.56;61.42;96927.81;6215393;23;20059;-77
2023/10/15 08:18:01;;;;;;;5.88;2.22;;;;;;;14.25;61.56;96923.88;6220380;23;20021;-78
2023/10/15 08:20:29;;;;;;;4.18;2.20;;;;;;;14.01;62.16;96923.41;6216098;23;20052;-77
2023/10/15 08:22:56;;;;;;;8.10;2.80;;;;;;;13.73;61.03;96931.34;6216148;23;20070;-77
2023/10/15 08:25:25;;;;;;;4.85;2.15;;;;;;;13.47;60.97;96931.97;6215644;23;20017;-78
2023/10/15 08:27:53;;;;;;;5.88;2.35;;;;;;;13.37;61.85;96927.06;6216161;23;20020;-78
2023/10/15 08:30:21;;;;;;;4.65;2.42;;;;;;;13.29;62.81;96929.81;6216815;23;20099;-77
2023/10/15 08:32:49;;;;;;;4.93;2.50;;;;;;;13.19;62.59;96932.75;6217940;23;20079;-77
2023/10/15 08:35:17;;;;;;;4.13;2.47;;;;;;;13.06;61.56;96935.28;6218416;23;20027;-78
2023/10/15 08:37:46;;;;;;;4.80;2.50;;;;;;;12.98;63.30;96932.78;6218237;23;20082;-77
2023/10/15 08:40:16;;;;;;;4.03;2.45;;;;;;;12.95;63.44;96939.22;6218681;23;20025;-78
2023/10/15 08:43:05;;;;;;;17.05;9.20;;;;;;;12.95;64.86;96938.41;6219685;23;20020;-77
2023/10/15 08:45:34;;;;;;;9.45;5.57;;;;;;;12.91;62.94;96937.16;6219515;23;20017;-78
2023/10/15 08:48:07;;;;;;;8.82;4.55;;;;;;;12.82;62.98;96933.06;6229159;23;20040;-78
2023/10/15 08:50:37;;;;;;;5.82;2.92;;;;;;;12.77;64.95;96925.75;6241945;23;20012;-75
2023/10/15 08:53:07;;;;;;;11.05;5.07;;;;;;;12.81;66.21;96929.59;6240813;23;20052;-75
2023/10/15 08:55:37;;;;;;;17.38;8.73;;;;;;;12.85;66.13;96930.03;6221624;23;20076;-77
2023/10/15 08:58:07;;;;;;;7.65;2.95;;;;;;;12.84;64.21;96931.06;6218722;23;20027;-77
2023/10/15 09:00:36;;;;;;;7.97;4.18;;;;;;;12.82;65.49;96938.28;6217396;23;20024;-77
2023/10/15 09:03:05;;;;;;;7.18;3.38;;;;;;;12.81;65.17;96936.66;6218475;23;20040;-79
2023/10/15 09:05:37;;;;;;;5.43;2.28;;;;;;;12.75;65.70;96944.25;6218672;23;20075;-75
2023/10/15 09:08:07;;;;;;;7.83;2.80;;;;;;;12.71;66.15;96945.63;6224015;23;20021;-76
2023/10/15 09:10:37;;;;;;;8.32;3.13;;;;;;;12.67;65.83;96940.97;6220106;23;20257;-73
2023/10/15 09:13:14;;;;;;;3.85;2.70;;;;;;;12.69;67.04;96945.00;6216307;23;20032;-73
2023/10/15 09:15:43;;;;;;;6.22;3.40;;;;;;;12.70;66.49;96941.41;6215220;23;20116;-74
2023/10/15 09:18:11;;;;;;;9.63;3.75;;;;;;;12.72;66.53;96951.66;6214385;23;20028;-74
2023/10/15 09:20:42;;;;;;;7.13;4.00;;;;;;;12.76;67.97;96961.56;6214528;23;20025;-73
2023/10/15 09:23:10;;;;;;;9.90;4.68;;;;;;;12.84;66.33;96952.81;6214698;23;20413;-73
2023/10/15 09:25:37;;;;;;;113.13;62.40;;;;;;;12.96;68.52;96953.09;6215085;23;20021;-75
2023/10/15 09:28:06;;;;;;;41.05;23.02;;;;;;;13.13;69.06;96951.03;6215710;23;20032;-74
2023/10/15 09:30:34;;;;;;;14.15;8.88;;;;;;;13.34;67.81;96947.63;6215134;23;20020;-75
2023/10/15 09:33:02;;;;;;;9.32;4.57;;;;;;;13.50;66.72;96947.31;6215518;23;20466;-77
2023/10/15 09:35:30;;;;;;;7.50;3.28;;;;;;;13.68;64.25;96953.88;6214670;23;20021;-78
2023/10/15 09:37:58;;;;;;;5.22;2.97;;;;;;;13.84;65.18;96950.97;6215783;23;20024;-79
2023/10/15 09:40:30;;;;;;;4.78;2.97;;;;;;;13.98;63.42;96949.22;6215945;23;20530;-72
2023/10/15 09:43:01;;;;;;;17.65;3.13;;;;;;;14.03;60.38;96954.66;6215084;23;20477;-76
2023/10/15 09:45:30;;;;;;;5.13;2.22;;;;;;;13.99;58.38;96950.81;6230700;23;20027;-79
2023/10/15 09:48:00;;;;;;;5.70;2.57;;;;;;;13.88;58.36;96943.50;6241353;23;20060;-79
2023/10/15 09:50:32;;;;;;;11.07;7.22;;;;;;;13.77;58.74;96937.81;6237074;23;20032;-78
2023/10/15 09:53:08;;;;;;;37.63;17.08;;;;;;;13.69;59.84;96939.78;6232990;23;20017;-79
2023/10/15 09:55:38;;;;;;;5.90;2.78;;;;;;;13.63;58.54;96943.16;6231328;23;20029;-79
2023/10/15 09:58:08;;;;;;;4.18;1.90;;;;;;;13.60;57.24;96941.75;6222030;23;20021;-79
2023/10/15 10:00:48;;;;;;;7.13;1.63;;;;;;;13.66;56.33;96948.81;6215586;23;20387;-79
2023/10/15 10:04:14;;;;;;;3.00;1.17;;;;;;;13.80;58.24;96949.72;6238668;23;20039;-80
2023/10/15 10:07:26;;;;;;;3.78;1.50;;;;;;;13.97;55.54;96951.03;6238776;23;20103;-79
2023/10/15 10:10:44;;;;;;;3.95;1.35;;;;;;;14.27;54.77;96952.56;6222721;23;20021;-79
2023/10/15 10:13:27;;;;;;;4.10;1.00;;;;;;;14.40;50.36;96948.16;6216697;23;20434;-79
2023/10/15 10:15:58;;;;;;;3.08;1.42;;;;;;;14.36;51.24;96946.13;6220816;23;20040;-79
2023/10/15 10:18:27;;;;;;;4.65;1.33;;;;;;;14.37;52.38;96942.50;6222176;23;20020;-79
2023/10/15 10:20:56;;;;;;;4.68;0.90;;;;;;;14.45;52.46;96939.69;6219557;23;20419;-79
2023/10/15 10:23:24;;;;;;;3.33;1.20;;;;;;;14.39;50.58;96946.56;6217732;23;20028;-80
2023/10/15 10:26:13;;;;;;;3.85;1.23;;;;;;;14.21;51.62;96938.41;6214758;23;20024;-78
2023/10/15 10:28:41;;;;;;;4.28;0.88;;;;;;;14.14;51.71;96932.31;6215200;23;20028;-79
2023/10/15 10:31:11;;;;;;;3.03;1.30;;;;;;;14.13;55.25;96926.28;6214585;23;20027;-79
2023/10/15 10:33:49;;;;;;;4.45;1.27;;;;;;;14.18;52.46;96923.06;6214467;23;20425;-79
2023/10/15 10:36:19;;;;;;;2.45;1.10;;;;;;;14.25;53.51;96918.63;6217680;23;20024;-79
2023/10/15 10:38:59;;;;;;;4.20;1.33;;;;;;;14.28;51.55;96931.38;6217341;23;20020;-79
2023/10/15 10:41:36;;;;;;;7.65;1.30;;;;;;;14.33;56.18;96926.34;6219120;23;20051;-78
2023/10/15 10:44:06;;;;;;;33.78;21.63;;;;;;;14.48;56.36;96925.38;6215844;23;20070;-79
2023/10/15 10:46:56;;;;;;;14.40;7.97;;;;;;;14.75;55.21;96921.81;6218358;23;20016;-79
2023/10/15 10:49:34;;;;;;;1.97;1.10;;;;;;;15.00;51.14;96919.41;6218415;23;20411;-79
2023/10/15 10:52:15;;;;;;;1.85;0.80;;;;;;;15.37;52.07;96916.34;6229142;23;20266;-80
2023/10/15 10:54:46;;;;;;;3.28;0.80;;;;;;;15.87;51.14;96921.94;6235290;23;20025;-76
2023/10/15 10:57:14;;;;;;;1.13;0.63;;;;;;;16.29;49.83;96925.03;6224174;23;20024;-74
2023/10/15 10:59:43;;;;;;;1.35;0.60;;;;;;;16.30;48.29;96916.13;6216356;23;20413;-74
2023/10/15 11:02:13;;;;;;;2.28;0.63;;;;;;;16.20;49.24;96915.75;6215055;23;20025;-74
2023/10/15 11:04:42;;;;;;;3.50;1.17;;;;;;;16.06;47.43;96899.22;6213846;23;20027;-76
2023/10/15 11:07:13;;;;;;;3.28;0.82;;;;;;;15.90;46.64;96900.50;6214783;23;20550;-74
2023/10/15 11:09:40;;;;;;;2.95;0.73;;;;;;;15.77;46.18;96898.72;6216029;23;20021;-75
2023/10/15 11:12:10;;;;;;;1.85;0.70;;;;;;;15.82;47.89;96896.25;6216131;23;20024;-74
2023/10/15 11:14:37;;;;;;;2.80;1.00;;;;;;;16.07;47.22;96895.59;6215365;23;20495;-74
2023/10/15 11:17:07;;;;;;;2.83;0.63;;;;;;;16.31;45.11;96906.38;6216254;23;20024;-75
2023/10/15 11:19:37;;;;;;;3.08;0.70;;;;;;;16.51;43.94;96912.38;6217047;23;20103;-74
2023/10/15 11:22:06;;;;;;;2.50;0.50;;;;;;;16.74;43.71;96906.53;6217124;23;20353;-74
2023/10/15 11:24:34;;;;;;;1.35;0.43;;;;;;;16.94;42.73;96910.91;6216241;23;20024;-73
2023/10/15 11:27:06;;;;;;;2.20;0.50;;;;;;;17.33;43.42;96914.22;6216040;23;20024;-74
2023/10/15 11:29:34;;;;;;;2.42;0.50;;;;;;;17.87;43.03;96905.59;6216091;23;20091;-74
2023/10/15 11:32:02;;;;;;;4.57;1.95;;;;;;;18.44;41.53;96893.91;6215940;23;20027;-73
2023/10/15 11:34:31;;;;;;;7.22;1.00;;;;;;;19.00;41.38;96897.19;6216227;23;20024;-75
2023/10/15 11:37:01;;;;;;;2.15;0.60;;;;;;;19.41;39.32;96903.41;6216435;23;20112;-76
2023/10/15 11:39:37;;;;;;;3.80;1.20;;;;;;;19.55;42.32;96899.50;6221103;23;20025;-76
2023/10/15 11:42:07;;;;;;;1.73;0.70;;;;;;;19.51;39.67;96898.38;6216261;23;20489;-77
2023/10/15 11:44:37;;;;;;;4.38;0.85;;;;;;;19.41;39.82;96906.06;6214115;23;20354;-77
2023/10/15 11:47:11;;;;;;;2.40;0.40;;;;;;;19.22;37.79;96905.34;6214185;23;20470;-77
2023/10/15 11:49:42;;;;;;;2.28;0.50;;;;;;;18.87;37.60;96914.88;6214442;23;20106;-77
2023/10/15 11:52:14;;;;;;;3.20;0.73;;;;;;;18.56;38.98;96917.72;6215083;23;20024;-77